In Rescue
 
Open Full Screen Window  High Contrast Mode
Wind Gusting 00 knots
13
July 13, 2020 9:44 AM CDT
Weather Information
Wind Direction
  150 °
Wind Speed
  13 kt (15 mph)
Wind Gust
  00 kt (0 mph)
Altimeter
29.87 in
Visibility
10 SM
Temperature
23° C
73° F
Dewpoint
17° C
63° F
Humidity
69%
1hr Rain Fall
00.00 in.
24hr Rain Fall
00.00 in.
Sky Condition
Scattered @ 9,000 ft
VFR

METAR KADC 131444Z AUTO 15013KT 10SM SCT090 23/17 A2987 RMK AO2

FAA Disclaimer: The data displayed is for advisory purposes only and is not to be used for flight planning or operations.